Time;durP1;ratioP1;P1;durP2;ratioP2;P2;SDS_P1;SDS_P2;PMS_P1;PMS_P2;Temp;Humidity;BMP_temperature;BMP_pressure;BME280_temperature;BME280_humidity;BME280_pressure;Samples;Min_cycle;Max_cycle;Signal;HPM_P1;HPM_P2
2023/02/08 00:01:30;;;;;;;54.00;27.70;;;;;;;-1.38;80.55;102514.46;219881;1253;140027;-65
2023/02/08 00:06:35;;;;;;;61.10;28.00;;;;;;;-1.32;80.64;102513.91;219047;1253;139721;-65
2023/02/08 00:11:40;;;;;;;45.00;23.60;;;;;;;-1.33;80.32;102515.55;219926;1253;139332;-65
2023/02/08 00:16:43;;;;;;;34.80;19.10;;;;;;;-1.38;80.44;102520.56;219711;1253;139644;-65
2023/02/08 00:21:49;;;;;;;42.20;21.60;;;;;;;-1.42;80.38;102523.20;218511;1256;141447;-65
2023/02/08 00:26:54;;;;;;;38.10;18.90;;;;;;;-1.47;80.20;102520.74;219036;1252;139581;-66
2023/02/08 00:32:00;;;;;;;50.20;24.80;;;;;;;-1.52;80.19;102520.98;219163;1254;139422;-65
2023/02/08 00:37:06;;;;;;;54.90;26.00;;;;;;;-1.50;79.88;102527.66;218832;1254;141217;-65
2023/02/08 00:42:11;;;;;;;47.30;24.90;;;;;;;-1.48;80.16;102530.20;219582;1253;139692;-66
2023/02/08 00:47:15;;;;;;;49.00;25.50;;;;;;;-1.50;80.26;102527.17;218639;1253;139498;-65
2023/02/08 00:52:27;;;;;;;37.50;20.90;;;;;;;-1.54;80.45;102522.85;219118;1253;139959;-65
2023/02/08 00:57:34;;;;;;;33.00;17.00;;;;;;;-1.57;80.22;102517.32;218285;1254;139293;-66
2023/02/08 01:02:39;;;;;;;31.80;16.00;;;;;;;-1.60;80.47;102512.81;220075;1253;139796;-66
2023/02/08 01:07:44;;;;;;;30.00;16.40;;;;;;;-1.54;80.06;102516.30;218638;1254;140731;-65
2023/02/08 01:12:49;;;;;;;48.60;24.20;;;;;;;-1.49;80.07;102517.68;218842;1254;139747;-65
2023/02/08 01:17:55;;;;;;;34.90;17.20;;;;;;;-1.49;80.42;102521.02;218722;1257;139390;-64
2023/02/08 01:22:59;;;;;;;29.30;17.40;;;;;;;-1.53;79.85;102515.52;218501;1254;139528;-65
2023/02/08 01:28:03;;;;;;;35.40;17.40;;;;;;;-1.56;79.93;102514.84;219620;1254;141033;-66
2023/02/08 01:33:07;;;;;;;28.30;13.80;;;;;;;-1.64;79.97;102509.35;219242;1253;139913;-66
2023/02/08 01:38:10;;;;;;;18.20;12.70;;;;;;;-1.69;80.13;102515.70;219903;1253;139568;-66
2023/02/08 01:43:27;;;;;;;17.20;11.70;;;;;;;-1.72;79.89;102505.75;220997;1253;139924;-67
2023/02/08 01:48:37;;;;;;;15.70;9.70;;;;;;;-1.66;79.76;102502.30;220606;1253;141102;-65
2023/02/08 01:53:46;;;;;;;25.00;15.20;;;;;;;-1.59;79.82;102500.20;220613;1253;139732;-64
2023/02/08 01:58:57;;;;;;;21.30;11.80;;;;;;;-1.56;79.72;102501.59;221216;1253;139731;-65
2023/02/08 02:04:04;;;;;;;22.60;12.40;;;;;;;-1.58;79.66;102498.91;219159;1253;139285;-64
2023/02/08 02:09:44;;;;;;;19.30;11.80;;;;;;;-1.60;79.61;102494.45;218355;1254;139941;-64
2023/02/08 02:14:49;;;;;;;22.90;12.00;;;;;;;-1.63;79.61;102494.84;220204;1254;139992;-66
2023/02/08 02:20:16;;;;;;;18.70;11.20;;;;;;;-1.67;79.53;102490.88;218734;1254;139137;-65
2023/02/08 02:25:42;;;;;;;21.10;12.30;;;;;;;-1.77;79.23;102498.52;219830;1254;139729;-65
2023/02/08 02:31:40;;;;;;;25.40;14.30;;;;;;;-1.77;79.35;102507.83;218492;1254;139995;-66
2023/02/08 02:36:49;;;;;;;20.60;12.50;;;;;;;-1.79;79.30;102503.23;219034;1256;141971;-65
2023/02/08 02:47:38;;;;;;;20.50;10.80;;;;;;;-1.82;79.39;102508.77;218966;1253;140375;-66
2023/02/08 02:52:54;;;;;;;25.00;11.50;;;;;;;-1.86;79.54;102505.06;219132;1253;139581;-65
2023/02/08 02:58:01;;;;;;;24.80;12.40;;;;;;;-1.95;79.47;102503.28;218342;1253;244812;-63
2023/02/08 03:03:17;;;;;;;18.50;11.60;;;;;;;-1.93;79.42;102500.17;218529;1254;140046;-63
2023/02/08 03:08:28;;;;;;;20.80;12.30;;;;;;;-1.92;79.26;102501.88;219656;1253;139550;-65
2023/02/08 03:14:12;;;;;;;17.70;10.00;;;;;;;-1.95;79.71;102504.16;218493;1254;140031;-64
2023/02/08 03:19:30;;;;;;;13.90;10.10;;;;;;;-2.05;79.32;102507.80;219530;1253;140408;-65
2023/02/08 03:24:49;;;;;;;16.60;10.00;;;;;;;-2.09;79.51;102513.09;218853;1254;139398;-64
2023/02/08 03:30:08;;;;;;;16.60;9.80;;;;;;;-2.07;79.17;102516.11;218812;1253;139369;-63
2023/02/08 03:35:21;;;;;;;26.30;11.70;;;;;;;-2.04;79.58;102522.77;219528;1254;139580;-63
2023/02/08 03:40:34;;;;;;;20.00;9.50;;;;;;;-2.06;79.36;102521.48;220579;1254;139337;-67
2023/02/08 03:45:46;;;;;;;22.80;10.50;;;;;;;-2.11;79.38;102526.08;221133;1253;140318;-66
2023/02/08 03:50:55;;;;;;;20.50;9.90;;;;;;;-2.12;79.30;102521.63;219752;1254;140548;-63
2023/02/08 03:56:06;;;;;;;20.20;11.10;;;;;;;-2.15;79.37;102522.38;220492;1254;139943;-66
2023/02/08 04:01:37;;;;;;;20.90;10.90;;;;;;;-2.21;79.04;102529.48;219745;1254;139513;-66
2023/02/08 04:06:41;;;;;;;28.50;14.40;;;;;;;-2.26;78.86;102531.98;219808;1254;216100;-66
2023/02/08 04:11:46;;;;;;;26.90;14.20;;;;;;;-2.25;78.84;102540.34;219071;1254;139312;-66
2023/02/08 04:16:51;;;;;;;43.50;16.50;;;;;;;-2.35;79.24;102538.08;218512;1254;139533;-65
2023/02/08 04:21:56;;;;;;;42.70;18.40;;;;;;;-2.37;79.58;102544.23;219217;1253;139308;-66
2023/02/08 04:27:00;;;;;;;42.50;17.80;;;;;;;-2.37;79.53;102555.56;218553;1254;139255;-64
2023/02/08 04:32:12;;;;;;;66.50;20.80;;;;;;;-2.44;79.59;102556.33;219209;1254;140405;-64
2023/02/08 04:37:17;;;;;;;71.20;20.30;;;;;;;-2.51;79.38;102556.34;218330;1256;139967;-64
2023/02/08 04:42:22;;;;;;;45.40;20.10;;;;;;;-2.49;79.49;102546.16;218454;1254;139343;-64
2023/02/08 04:47:27;;;;;;;52.50;19.40;;;;;;;-2.50;79.82;102546.02;218396;1254;139408;-64
2023/02/08 04:52:31;;;;;;;44.80;18.90;;;;;;;-2.52;79.98;102549.59;218529;1254;140404;-64
2023/02/08 04:57:36;;;;;;;56.00;19.40;;;;;;;-2.56;80.00;102549.66;218884;1253;139440;-65
2023/02/08 05:02:40;;;;;;;54.60;19.10;;;;;;;-2.60;80.09;102552.48;218369;1253;139571;-63
2023/02/08 05:07:46;;;;;;;42.40;14.70;;;;;;;-2.61;80.20;102554.62;219322;1257;139946;-63
2023/02/08 05:12:50;;;;;;;30.00;15.10;;;;;;;-2.54;80.40;102564.69;219521;1254;139399;-65
2023/02/08 05:17:55;;;;;;;33.00;15.30;;;;;;;-2.44;80.61;102570.06;218592;1253;139902;-65
2023/02/08 05:22:58;;;;;;;30.70;16.20;;;;;;;-2.38;80.46;102578.77;219693;1254;140512;-65
2023/02/08 05:28:03;;;;;;;31.00;15.20;;;;;;;-2.35;80.54;102590.33;219425;1254;140032;-64
2023/02/08 05:33:08;;;;;;;28.90;16.60;;;;;;;-2.34;80.66;102594.95;218438;1254;139217;-65
2023/02/08 05:38:12;;;;;;;38.90;16.10;;;;;;;-2.37;80.50;102597.17;220663;1254;139080;-67
2023/02/08 05:43:16;;;;;;;37.70;18.50;;;;;;;-2.38;80.54;102601.58;221072;1254;140559;-66
2023/02/08 05:48:20;;;;;;;29.80;15.40;;;;;;;-2.32;80.45;102605.83;220949;1253;141313;-69
2023/02/08 05:53:25;;;;;;;26.80;14.30;;;;;;;-2.25;80.69;102612.94;219925;1253;141338;-65
2023/02/08 05:58:30;;;;;;;28.70;14.50;;;;;;;-2.20;80.54;102626.09;219544;1254;140322;-65
2023/02/08 06:03:37;;;;;;;43.60;19.10;;;;;;;-2.25;80.37;102627.92;219565;1253;140296;-66
2023/02/08 06:08:43;;;;;;;35.90;16.30;;;;;;;-2.30;80.63;102629.96;218433;1254;139372;-66
2023/02/08 06:13:49;;;;;;;33.90;19.70;;;;;;;-2.31;80.78;102627.02;219743;1254;139047;-66
2023/02/08 06:18:53;;;;;;;47.20;24.80;;;;;;;-2.24;80.77;102627.55;218479;1254;139773;-67
2023/02/08 06:23:58;;;;;;;50.20;26.50;;;;;;;-2.17;80.65;102631.54;219878;1253;139407;-67
2023/02/08 06:29:03;;;;;;;70.60;34.30;;;;;;;-2.14;80.78;102639.73;218963;1253;139735;-66
2023/02/08 06:34:08;;;;;;;68.30;30.60;;;;;;;-2.15;80.83;102646.00;218732;1256;139182;-66
2023/02/08 06:39:12;;;;;;;69.60;34.60;;;;;;;-2.20;80.89;102646.48;218835;1254;139403;-66
2023/02/08 06:44:18;;;;;;;61.10;31.90;;;;;;;-2.20;81.08;102645.11;218439;1256;139166;-66
2023/02/08 06:49:23;;;;;;;61.80;30.50;;;;;;;-2.19;81.03;102651.83;219064;1254;139518;-66
2023/02/08 06:54:28;;;;;;;60.60;29.70;;;;;;;-2.12;80.89;102654.07;218770;1254;139668;-65
2023/02/08 06:59:33;;;;;;;47.50;27.20;;;;;;;-2.04;80.99;102657.11;218253;1254;139633;-66
2023/02/08 07:04:39;;;;;;;44.90;22.00;;;;;;;-1.97;81.28;102666.52;219491;1253;139467;-66
2023/02/08 07:09:43;;;;;;;36.10;21.10;;;;;;;-1.93;80.83;102673.58;218402;1254;139634;-65
2023/02/08 07:14:49;;;;;;;38.20;20.80;;;;;;;-1.90;80.87;102681.29;219259;1257;139423;-66
2023/02/08 07:19:55;;;;;;;37.60;17.80;;;;;;;-1.88;80.90;102685.20;219658;1254;139740;-67
2023/02/08 07:24:59;;;;;;;40.10;21.60;;;;;;;-1.83;80.97;102685.08;218284;1254;139583;-68
2023/02/08 07:30:06;;;;;;;40.90;19.70;;;;;;;-1.75;80.42;102679.22;219174;1254;141552;-69
2023/02/08 07:35:11;;;;;;;38.60;19.70;;;;;;;-1.65;80.39;102678.02;219448;1255;139912;-66
2023/02/08 07:40:16;;;;;;;37.90;20.70;;;;;;;-1.53;80.73;102680.29;220722;1253;139587;-68
2023/02/08 07:45:22;;;;;;;36.40;19.00;;;;;;;-1.42;80.53;102677.56;220479;1254;139512;-66
2023/02/08 07:50:25;;;;;;;35.20;17.70;;;;;;;-1.29;80.12;102676.52;221087;1255;139204;-66
2023/02/08 07:55:32;;;;;;;28.00;16.60;;;;;;;-1.21;80.33;102680.91;221075;1257;141241;-66
2023/02/08 08:00:36;;;;;;;32.60;15.00;;;;;;;-1.13;79.68;102679.23;219447;1254;140136;-64
2023/02/08 08:05:42;;;;;;;30.60;16.80;;;;;;;-1.03;79.08;102682.38;218817;1254;140968;-66
2023/02/08 08:10:46;;;;;;;25.80;15.50;;;;;;;-0.92;79.10;102684.02;218587;1254;140375;-67
2023/02/08 08:15:50;;;;;;;35.80;15.30;;;;;;;-0.83;78.89;102679.64;219057;1254;140914;-67
2023/02/08 08:20:56;;;;;;;27.50;15.30;;;;;;;-0.78;78.93;102686.17;218628;1253;139302;-64
2023/02/08 08:26:10;;;;;;;28.30;14.60;;;;;;;-0.69;78.67;102687.70;218767;1254;139465;-63
2023/02/08 08:31:18;;;;;;;26.90;14.50;;;;;;;-0.59;78.26;102681.88;218061;1254;139802;-65
2023/02/08 08:36:22;;;;;;;29.00;16.00;;;;;;;-0.52;77.97;102679.21;218451;1257;139547;-63
2023/02/08 08:41:27;;;;;;;30.60;16.40;;;;;;;-0.48;78.11;102684.02;218314;1257;139823;-63
2023/02/08 08:46:31;;;;;;;25.60;16.20;;;;;;;-0.43;77.83;102692.11;219209;1254;139562;-63
2023/02/08 08:51:36;;;;;;;29.70;18.50;;;;;;;-0.45;77.51;102686.30;218218;1254;139562;-61
2023/02/08 08:56:40;;;;;;;27.40;17.10;;;;;;;-0.47;77.46;102685.17;218389;1253;139026;-64
2023/02/08 09:01:44;;;;;;;37.20;16.60;;;;;;;-0.50;77.39;102687.98;218796;1253;140794;-65
2023/02/08 09:06:50;;;;;;;29.70;19.10;;;;;;;-0.47;77.24;102693.75;218125;1257;139715;-67
2023/02/08 09:11:55;;;;;;;24.70;13.30;;;;;;;-0.39;77.48;102688.88;218498;1254;139617;-64
2023/02/08 09:17:00;;;;;;;25.30;13.90;;;;;;;-0.30;77.12;102694.83;218573;1254;140816;-67
2023/02/08 09:22:08;;;;;;;25.80;14.10;;;;;;;-0.27;76.97;102694.48;218543;1254;139375;-69
2023/02/08 09:27:13;;;;;;;21.10;11.90;;;;;;;-0.26;76.75;102694.42;219008;1254;139391;-68
2023/02/08 09:32:17;;;;;;;21.50;12.20;;;;;;;-0.23;76.68;102697.89;218033;1256;140278;-68
2023/02/08 09:37:21;;;;;;;28.50;12.90;;;;;;;-0.12;76.49;102702.11;217969;1256;140733;-70
2023/02/08 09:42:38;;;;;;;26.50;14.70;;;;;;;0.01;76.46;102706.24;220719;1254;140541;-68
2023/02/08 09:47:49;;;;;;;24.40;13.80;;;;;;;0.13;76.24;102708.27;220969;1254;139766;-66
2023/02/08 09:53:14;;;;;;;25.80;13.40;;;;;;;0.26;76.23;102708.64;219840;1254;140364;-68
2023/02/08 09:58:32;;;;;;;28.60;13.60;;;;;;;0.36;75.52;102707.70;218682;1254;141331;-71
2023/02/08 10:03:43;;;;;;;24.50;12.70;;;;;;;0.48;75.66;102700.46;217871;1256;139396;-69
2023/02/08 10:08:51;;;;;;;29.90;13.20;;;;;;;0.58;75.35;102687.95;218396;1254;139547;-69
2023/02/08 10:14:08;;;;;;;33.10;17.00;;;;;;;0.72;75.45;102683.14;219378;1255;139082;-68
2023/02/08 10:19:43;;;;;;;24.10;16.90;;;;;;;0.87;75.39;102683.23;217911;1255;139527;-69
2023/02/08 10:24:53;;;;;;;31.80;18.80;;;;;;;1.02;75.39;102674.20;218021;1254;140182;-68
2023/02/08 10:30:27;;;;;;;28.50;15.60;;;;;;;1.13;74.93;102665.09;217908;1254;140722;-68
2023/02/08 10:35:36;;;;;;;27.80;17.00;;;;;;;1.18;74.10;102663.36;217880;1256;140368;-69
2023/02/08 10:40:42;;;;;;;24.90;13.40;;;;;;;1.26;74.08;102657.33;217933;1253;140228;-68
2023/02/08 10:45:58;;;;;;;20.20;10.00;;;;;;;1.32;73.90;102656.41;218371;1256;139759;-68
2023/02/08 10:51:03;;;;;;;18.50;11.60;;;;;;;1.30;73.34;102651.99;218118;1256;139655;-68
2023/02/08 10:56:24;;;;;;;22.70;14.00;;;;;;;1.26;73.21;102650.85;218656;1254;140305;-69
2023/02/08 11:01:30;;;;;;;15.30;10.30;;;;;;;1.35;73.26;102655.87;217907;1258;140444;-72
2023/02/08 11:06:35;;;;;;;22.40;14.20;;;;;;;1.33;72.87;102656.69;218787;1258;140803;-67
2023/02/08 11:11:45;;;;;;;24.60;13.00;;;;;;;1.24;72.48;102652.60;218939;1257;139079;-69
2023/02/08 11:16:55;;;;;;;18.50;11.70;;;;;;;1.23;73.04;102644.44;218740;1257;140344;-70
2023/02/08 11:22:00;;;;;;;22.70;13.00;;;;;;;1.43;72.95;102636.38;217951;1258;226757;-69
2023/02/08 11:27:19;;;;;;;22.50;12.40;;;;;;;1.53;71.98;102630.65;217832;1259;140738;-69
2023/02/08 11:32:23;;;;;;;15.70;10.20;;;;;;;1.43;72.03;102625.92;218352;1260;139718;-69
2023/02/08 11:37:27;;;;;;;20.30;10.10;;;;;;;1.44;71.67;102629.19;217755;1260;139669;-71
2023/02/08 11:42:43;;;;;;;18.20;11.20;;;;;;;1.37;71.48;102629.97;217999;1258;139154;-70
2023/02/08 11:47:49;;;;;;;17.90;10.10;;;;;;;1.31;71.05;102627.92;218436;1260;140639;-68
2023/02/08 11:53:26;;;;;;;15.80;9.90;;;;;;;1.22;71.49;102625.92;217840;1254;139696;-72
2023/02/08 11:58:31;;;;;;;18.90;9.20;;;;;;;1.26;71.25;102618.66;218103;1254;139024;-74
2023/02/08 12:03:37;;;;;;;23.50;10.40;;;;;;;1.49;71.55;102615.98;218292;1257;142172;-72
2023/02/08 12:09:06;;;;;;;17.30;8.30;;;;;;;1.82;71.61;102620.20;217830;1254;140138;-72
2023/02/08 12:14:31;;;;;;;15.30;8.20;;;;;;;1.96;70.96;102621.99;218111;1257;151597;-71
2023/02/08 12:19:59;;;;;;;13.80;8.20;;;;;;;2.23;70.97;102620.23;218244;1260;139211;-69
2023/02/08 12:25:20;;;;;;;17.70;9.00;;;;;;;2.43;69.75;102617.04;218437;1255;140364;-71
2023/02/08 12:30:47;;;;;;;9.50;5.80;;;;;;;2.42;69.53;102610.11;217831;1254;139673;-70
2023/02/08 12:35:52;;;;;;;7.20;5.40;;;;;;;2.45;69.41;102605.65;217929;1257;139104;-67
2023/02/08 12:41:19;;;;;;;7.40;4.30;;;;;;;2.32;68.69;102603.77;218083;1257;138815;-72
2023/02/08 12:46:54;;;;;;;7.20;4.50;;;;;;;2.32;68.69;102604.27;218224;1260;138761;-73
2023/02/08 12:52:17;;;;;;;11.90;6.40;;;;;;;2.25;68.21;102598.81;217926;1254;138905;-72
2023/02/08 12:57:24;;;;;;;9.00;6.40;;;;;;;2.11;68.35;102594.65;217964;1254;140936;-72
2023/02/08 13:02:43;;;;;;;12.80;7.40;;;;;;;2.00;68.37;102584.36;218056;1254;138764;-68
2023/02/08 13:07:59;;;;;;;12.50;8.40;;;;;;;1.90;68.24;102585.79;218971;1254;139988;-73
2023/02/08 13:13:23;;;;;;;18.40;11.60;;;;;;;1.73;68.13;102577.36;219311;1257;139642;-70
2023/02/08 13:18:54;;;;;;;15.20;7.80;;;;;;;1.71;68.69;102573.11;217954;1257;139094;-70
2023/02/08 13:23:59;;;;;;;14.70;8.90;;;;;;;1.71;68.50;102567.52;219223;1254;139280;-70
2023/02/08 13:29:04;;;;;;;12.30;7.50;;;;;;;1.72;68.66;102556.55;218644;1260;139850;-74
2023/02/08 13:34:40;;;;;;;16.40;9.40;;;;;;;1.79;68.90;102555.94;220970;1254;139742;-74
2023/02/08 13:39:45;;;;;;;17.60;10.10;;;;;;;1.91;68.76;102549.38;220414;1254;141636;-69
2023/02/08 13:44:54;;;;;;;18.60;9.80;;;;;;;1.83;68.20;102554.02;218684;1254;141651;-68
2023/02/08 13:50:23;;;;;;;19.90;10.20;;;;;;;1.79;68.67;102550.44;220787;1254;138877;-70
2023/02/08 13:55:37;;;;;;;14.40;9.10;;;;;;;1.76;68.51;102548.95;218429;1256;139190;-68
2023/02/08 14:00:55;;;;;;;15.80;9.50;;;;;;;1.72;68.45;102551.67;219030;1254;138974;-70
2023/02/08 14:06:03;;;;;;;18.30;11.70;;;;;;;1.62;68.41;102553.55;217996;1257;139093;-65
2023/02/08 14:11:09;;;;;;;;;;;;;;;1.56;68.67;102549.96;218843;1254;140438;-68
2023/02/08 14:16:34;;;;;;;11.90;8.20;;;;;;;1.50;68.54;102546.56;218408;1257;125627;-67
2023/02/08 14:22:10;;;;;;;18.40;10.00;;;;;;;1.42;68.54;102551.15;217860;1254;139285;-68
2023/02/08 14:27:21;;;;;;;19.40;9.90;;;;;;;1.32;68.96;102557.08;217759;1254;140090;-65
2023/02/08 14:32:29;;;;;;;16.40;10.60;;;;;;;1.32;69.03;102558.80;219075;1254;140500;-65
2023/02/08 14:37:35;;;;;;;16.80;10.90;;;;;;;1.29;69.02;102557.43;219201;1253;139935;-75
2023/02/08 14:43:17;;;;;;;20.10;11.90;;;;;;;1.37;69.13;102561.11;218675;1253;140204;-71
2023/02/08 14:48:44;;;;;;;26.00;15.00;;;;;;;1.45;69.23;102559.53;217676;1257;139520;-66
2023/02/08 14:53:57;;;;;;;22.20;15.00;;;;;;;1.40;69.22;102559.89;217806;1254;142263;-70
2023/02/08 14:59:08;;;;;;;22.50;12.50;;;;;;;1.31;69.03;102562.04;217984;1254;140597;-66
2023/02/08 15:04:19;;;;;;;20.30;12.50;;;;;;;1.20;68.82;102561.06;218234;1254;140574;-69
2023/02/08 15:09:43;;;;;;;13.40;7.70;;;;;;;1.12;69.05;102555.33;217699;1254;139330;-69
2023/02/08 15:14:48;;;;;;;15.70;9.00;;;;;;;0.93;68.58;102554.36;217757;1254;139961;-70
2023/02/08 15:19:53;;;;;;;11.80;6.90;;;;;;;0.74;68.42;102554.23;218120;1257;139053;-70
2023/02/08 15:25:18;;;;;;;9.90;4.80;;;;;;;0.62;68.28;102555.89;220666;1253;140049;-74
2023/02/08 15:30:31;;;;;;;17.20;8.40;;;;;;;0.52;68.31;102558.48;220914;1254;139656;-74
2023/02/08 15:35:37;;;;;;;15.00;8.10;;;;;;;0.55;68.49;102564.76;220951;1254;140282;-73
2023/02/08 15:40:42;;;;;;;19.00;10.00;;;;;;;0.61;68.36;102565.10;219091;1253;139539;-74
2023/02/08 15:45:56;;;;;;;22.40;12.50;;;;;;;0.55;68.28;102553.75;219215;1254;139229;-70
2023/02/08 15:51:02;;;;;;;19.50;10.90;;;;;;;0.46;68.19;102556.29;218502;1257;140209;-70
2023/02/08 15:56:13;;;;;;;22.20;9.70;;;;;;;0.36;68.61;102553.25;217743;1257;141296;-77
2023/02/08 16:01:24;;;;;;;25.80;10.90;;;;;;;0.23;68.59;102552.67;218537;1254;140284;-67
2023/02/08 16:06:37;;;;;;;19.10;10.90;;;;;;;0.09;68.89;102549.21;217810;1254;258689;-70
2023/02/08 16:11:43;;;;;;;25.50;11.30;;;;;;;-0.02;68.95;102545.73;219181;1254;140841;-70
2023/02/08 16:16:56;;;;;;;26.00;11.90;;;;;;;-0.08;69.04;102541.91;217934;1257;139123;-69
2023/02/08 16:22:20;;;;;;;29.50;15.80;;;;;;;-0.16;68.88;102534.57;218767;1254;141562;-68
2023/02/08 16:27:26;;;;;;;24.60;12.20;;;;;;;-0.21;68.88;102534.68;218461;1253;140714;-77
2023/02/08 16:32:38;;;;;;;21.60;11.50;;;;;;;-0.38;68.86;102532.09;218573;1256;139508;-74
2023/02/08 16:37:44;;;;;;;22.10;12.30;;;;;;;-0.52;69.06;102521.80;218503;1257;139349;-68
2023/02/08 16:42:48;;;;;;;25.80;13.50;;;;;;;-0.77;68.80;102521.98;218499;1254;141003;-66
2023/02/08 16:47:57;;;;;;;25.60;15.40;;;;;;;-1.01;68.89;102519.26;219159;1253;139909;-69
2023/02/08 16:53:16;;;;;;;27.70;14.30;;;;;;;-1.18;69.25;102512.05;218455;1254;139926;-66
2023/02/08 16:58:24;;;;;;;31.20;16.60;;;;;;;-1.27;69.61;102508.95;218571;1253;139941;-69
2023/02/08 17:03:31;;;;;;;34.20;15.60;;;;;;;-1.33;69.93;102504.59;217818;1254;140330;-68
2023/02/08 17:08:36;;;;;;;;;;;;;;;-1.34;69.89;102498.69;218595;1254;142075;-68
2023/02/08 17:13:40;;;;;;;34.70;17.60;;;;;;;-1.42;70.25;102496.71;219962;1254;126330;-68
2023/02/08 17:18:46;;;;;;;44.40;21.50;;;;;;;-1.56;70.15;102496.13;220106;1254;139972;-67
2023/02/08 17:23:51;;;;;;;177.70;58.00;;;;;;;-1.67;70.32;102492.45;220827;1254;139928;-67
2023/02/08 17:28:57;;;;;;;131.10;45.40;;;;;;;-1.76;70.29;102485.23;219666;1254;141180;-66
2023/02/08 17:34:05;;;;;;;79.00;24.20;;;;;;;-1.81;70.30;102487.10;220269;1253;140586;-70
2023/02/08 17:39:10;;;;;;;86.30;28.80;;;;;;;-1.82;70.50;102482.48;221035;1253;140419;-72
2023/02/08 17:44:15;;;;;;;74.70;27.50;;;;;;;-1.94;70.39;102480.92;219226;1254;139234;-69
2023/02/08 17:49:19;;;;;;;67.40;26.10;;;;;;;-1.99;70.87;102482.42;218664;1256;140761;-70
2023/02/08 17:54:23;;;;;;;54.10;23.20;;;;;;;-2.06;70.70;102478.76;219660;1253;140690;-67
2023/02/08 17:59:29;;;;;;;46.90;20.00;;;;;;;-2.17;70.98;102478.70;218563;1253;139622;-68
2023/02/08 18:04:34;;;;;;;46.80;23.20;;;;;;;-2.28;70.90;102486.45;218125;1254;139276;-69
2023/02/08 18:09:39;;;;;;;60.70;24.80;;;;;;;-2.47;70.85;102486.30;218867;1254;139408;-66
2023/02/08 18:21:11;;;;;;;33.30;19.20;;;;;;;-2.94;71.40;102503.43;217986;1256;139907;-68
2023/02/08 18:26:22;;;;;;;37.20;19.90;;;;;;;-3.06;71.72;102502.00;217891;1254;139340;-67
2023/02/08 18:31:28;;;;;;;37.90;18.60;;;;;;;-3.23;71.83;102512.42;218069;1254;139835;-66
2023/02/08 18:36:31;;;;;;;68.50;32.50;;;;;;;-3.37;72.03;102516.83;217894;1254;139602;-67
2023/02/08 18:41:36;;;;;;;49.50;24.90;;;;;;;-3.47;71.93;102508.78;219009;1253;141444;-69
2023/02/08 18:46:40;;;;;;;65.70;33.40;;;;;;;-3.56;72.01;102506.11;218246;1254;139852;-66
2023/02/08 18:51:46;;;;;;;40.00;19.90;;;;;;;-3.66;72.30;102495.30;217956;1254;139467;-67
2023/02/08 18:56:55;;;;;;;40.70;20.90;;;;;;;-3.78;72.43;102496.77;218577;1254;139870;-66
2023/02/08 19:02:00;;;;;;;33.70;17.60;;;;;;;-3.90;72.68;102496.65;219160;1254;139884;-65
2023/02/08 19:07:05;;;;;;;39.30;18.80;;;;;;;-4.08;72.62;102479.47;220187;1256;140020;-64
2023/02/08 19:12:09;;;;;;;61.80;29.70;;;;;;;-4.19;72.76;102480.68;219293;1254;140765;-67
2023/02/08 19:17:13;;;;;;;47.00;25.10;;;;;;;-4.26;73.12;102479.10;219635;1254;140574;-67
2023/02/08 19:22:18;;;;;;;49.20;23.30;;;;;;;-4.32;73.27;102479.94;220734;1254;140941;-67
2023/02/08 19:27:21;;;;;;;46.20;23.30;;;;;;;-4.37;73.43;102479.98;220777;1253;140547;-68
2023/02/08 19:32:25;;;;;;;59.60;27.10;;;;;;;-4.35;73.52;102477.29;220720;1253;141620;-69
2023/02/08 19:37:29;;;;;;;67.80;36.70;;;;;;;-4.30;73.59;102478.64;219685;1253;141789;-70
2023/02/08 19:42:33;;;;;;;67.10;35.70;;;;;;;-4.28;73.76;102481.61;220071;1254;140097;-66
2023/02/08 19:47:41;;;;;;;51.00;24.50;;;;;;;-4.31;73.77;102483.20;219000;1254;139501;-64
2023/02/08 19:52:54;;;;;;;58.70;27.20;;;;;;;-4.49;73.59;102474.61;219182;1255;233089;-65
2023/02/08 19:57:59;;;;;;;49.70;26.40;;;;;;;-4.65;73.64;102479.53;219479;1256;139674;-68
2023/02/08 20:03:05;;;;;;;85.90;40.40;;;;;;;-4.79;73.92;102473.73;218083;1257;139849;-62
2023/02/08 20:08:25;;;;;;;77.10;35.50;;;;;;;-4.87;73.93;102471.52;218299;1258;141735;-67
2023/02/08 20:13:30;;;;;;;66.30;32.40;;;;;;;-4.88;74.32;102469.29;217933;1256;139484;-63
2023/02/08 20:18:33;;;;;;;54.90;27.50;;;;;;;-4.92;74.17;102463.43;218434;1259;139435;-66
2023/02/08 20:23:39;;;;;;;69.70;33.70;;;;;;;-5.06;74.30;102453.14;219029;1257;140490;-65
2023/02/08 20:28:49;;;;;;;56.00;29.60;;;;;;;-5.13;74.69;102456.36;217807;1254;139725;-65
2023/02/08 20:33:58;;;;;;;61.70;30.50;;;;;;;-5.25;74.56;102447.70;217709;1255;139954;-65
2023/02/08 20:39:04;;;;;;;64.50;31.30;;;;;;;-5.32;74.73;102441.26;217865;1254;141783;-66
2023/02/08 20:44:15;;;;;;;52.70;25.90;;;;;;;-5.33;74.70;102433.35;218550;1255;140407;-66
2023/02/08 20:49:24;;;;;;;49.10;25.00;;;;;;;-5.52;74.27;102421.88;218625;1256;139653;-66
2023/02/08 20:54:28;;;;;;;45.20;24.10;;;;;;;-5.71;74.68;102413.15;219325;1255;139633;-67
2023/02/08 20:59:34;;;;;;;48.50;25.80;;;;;;;-5.79;75.32;102407.41;217675;1257;139559;-64
2023/02/08 21:04:41;;;;;;;45.10;21.80;;;;;;;-5.71;76.07;102403.44;218703;1254;139337;-67
2023/02/08 21:09:46;;;;;;;50.40;24.50;;;;;;;-5.54;76.14;102402.21;218299;1254;140503;-66
2023/02/08 21:14:51;;;;;;;44.60;22.30;;;;;;;-5.35;76.27;102401.70;219673;1254;142085;-65
2023/02/08 21:19:55;;;;;;;52.50;23.20;;;;;;;-5.21;76.70;102393.63;218774;1258;140342;-64
2023/02/08 21:24:59;;;;;;;46.70;22.10;;;;;;;-5.07;76.86;102387.63;220718;1254;141895;-65
2023/02/08 21:30:03;;;;;;;53.80;20.80;;;;;;;-4.96;77.02;102382.10;219662;1256;140451;-62
2023/02/08 21:35:07;;;;;;;54.60;25.00;;;;;;;-4.87;76.68;102373.15;220800;1255;140768;-66
2023/02/08 21:40:12;;;;;;;51.60;23.70;;;;;;;-4.84;76.61;102370.78;218400;1257;140281;-66
2023/02/08 21:45:18;;;;;;;40.80;18.80;;;;;;;-4.85;76.47;102368.54;219360;1254;141490;-66
2023/02/08 21:55:47;;;;;;;52.60;24.50;;;;;;;-4.82;76.55;102366.33;219231;1253;140302;-65
2023/02/08 22:00:53;;;;;;;42.80;20.50;;;;;;;-4.83;76.39;102360.14;219293;1254;139849;-64
2023/02/08 22:11:21;;;;;;;47.40;24.50;;;;;;;-5.01;76.33;102347.99;218097;1254;140204;-66
2023/02/08 22:16:27;;;;;;;48.90;24.00;;;;;;;-5.09;76.34;102334.83;218692;1253;139739;-61
2023/02/08 22:21:31;;;;;;;45.40;24.00;;;;;;;-5.17;76.61;102327.90;218427;1254;141166;-65
2023/02/08 22:26:36;;;;;;;54.50;23.80;;;;;;;-5.22;76.84;102330.08;218438;1254;139769;-66
2023/02/08 22:31:41;;;;;;;47.40;22.70;;;;;;;-5.19;76.82;102328.02;218101;1254;139744;-64
2023/02/08 22:36:47;;;;;;;56.50;26.70;;;;;;;-5.21;76.80;102323.08;218630;1254;140630;-67
2023/02/08 22:41:53;;;;;;;55.50;29.80;;;;;;;-5.26;77.10;102315.53;218201;1254;139007;-64
2023/02/08 22:47:00;;;;;;;44.40;19.50;;;;;;;-5.29;77.32;102312.20;218990;1253;139873;-66
2023/02/08 22:52:05;;;;;;;;;;;;;;;-5.29;77.36;102294.86;218207;1256;141107;-66
2023/02/08 22:57:10;;;;;;;45.90;19.40;;;;;;;-5.23;77.42;102282.98;219116;1254;126311;-67
2023/02/08 23:02:18;;;;;;;38.50;19.10;;;;;;;-5.21;77.48;102277.15;218518;1253;140285;-67
2023/02/08 23:07:23;;;;;;;53.70;25.30;;;;;;;-5.23;77.43;102273.80;220244;1254;139418;-66
2023/02/08 23:12:28;;;;;;;44.00;18.30;;;;;;;-5.25;77.68;102280.12;220390;1253;140076;-67
2023/02/08 23:17:35;;;;;;;47.80;22.50;;;;;;;-5.23;77.52;102281.41;218453;1256;140658;-66
2023/02/08 23:22:41;;;;;;;46.30;22.80;;;;;;;-5.21;77.51;102282.02;219311;1256;141142;-61